sensor_id;sensor_type;location;lat;lon;timestamp;P1;durP1;ratioP1;P2;durP2;ratioP2
9294;SDS011;4686;44.496;11.324;2023-02-17T00:01:26;30.57;;;24.57;;
9294;SDS011;4686;44.496;11.324;2023-02-17T00:03:56;27.10;;;24.13;;
9294;SDS011;4686;44.496;11.324;2023-02-17T00:06:24;34.40;;;25.13;;
9294;SDS011;4686;44.496;11.324;2023-02-17T00:08:51;28.00;;;24.93;;
9294;SDS011;4686;44.496;11.324;2023-02-17T00:11:19;29.37;;;24.00;;
9294;SDS011;4686;44.496;11.324;2023-02-17T00:13:46;27.03;;;23.77;;
9294;SDS011;4686;44.496;11.324;2023-02-17T00:16:15;32.93;;;24.97;;
9294;SDS011;4686;44.496;11.324;2023-02-17T00:18:44;29.07;;;25.20;;
9294;SDS011;4686;44.496;11.324;2023-02-17T00:21:14;27.53;;;24.47;;
9294;SDS011;4686;44.496;11.324;2023-02-17T00:23:41;31.20;;;24.47;;
9294;SDS011;4686;44.496;11.324;2023-02-17T00:26:09;28.23;;;23.87;;
9294;SDS011;4686;44.496;11.324;2023-02-17T00:28:37;29.93;;;24.47;;
9294;SDS011;4686;44.496;11.324;2023-02-17T00:31:04;27.33;;;23.70;;
9294;SDS011;4686;44.496;11.324;2023-02-17T00:33:32;28.97;;;23.27;;
9294;SDS011;4686;44.496;11.324;2023-02-17T00:36:01;31.37;;;24.83;;
9294;SDS011;4686;44.496;11.324;2023-02-17T00:38:29;29.03;;;24.43;;
9294;SDS011;4686;44.496;11.324;2023-02-17T00:40:57;26.03;;;22.60;;
9294;SDS011;4686;44.496;11.324;2023-02-17T00:43:24;30.67;;;24.60;;
9294;SDS011;4686;44.496;11.324;2023-02-17T00:45:51;30.70;;;24.03;;
9294;SDS011;4686;44.496;11.324;2023-02-17T00:48:19;29.00;;;25.70;;
9294;SDS011;4686;44.496;11.324;2023-02-17T00:50:46;29.40;;;23.83;;
9294;SDS011;4686;44.496;11.324;2023-02-17T00:53:13;31.20;;;25.73;;
9294;SDS011;4686;44.496;11.324;2023-02-17T00:55:42;29.87;;;23.63;;
9294;SDS011;4686;44.496;11.324;2023-02-17T00:58:10;28.33;;;24.40;;
9294;SDS011;4686;44.496;11.324;2023-02-17T01:00:37;30.90;;;25.60;;
9294;SDS011;4686;44.496;11.324;2023-02-17T01:03:04;33.10;;;25.83;;
9294;SDS011;4686;44.496;11.324;2023-02-17T01:05:31;33.50;;;24.30;;
9294;SDS011;4686;44.496;11.324;2023-02-17T01:07:58;27.87;;;23.83;;
9294;SDS011;4686;44.496;11.324;2023-02-17T01:10:25;32.63;;;25.40;;
9294;SDS011;4686;44.496;11.324;2023-02-17T01:12:54;30.20;;;24.13;;
9294;SDS011;4686;44.496;11.324;2023-02-17T01:15:21;30.70;;;26.60;;
9294;SDS011;4686;44.496;11.324;2023-02-17T01:17:48;30.50;;;25.10;;
9294;SDS011;4686;44.496;11.324;2023-02-17T01:20:16;29.90;;;24.43;;
9294;SDS011;4686;44.496;11.324;2023-02-17T01:22:43;32.43;;;25.97;;
9294;SDS011;4686;44.496;11.324;2023-02-17T01:25:10;29.70;;;24.77;;
9294;SDS011;4686;44.496;11.324;2023-02-17T01:27:37;31.07;;;24.50;;
9294;SDS011;4686;44.496;11.324;2023-02-17T01:30:06;29.17;;;24.60;;
9294;SDS011;4686;44.496;11.324;2023-02-17T01:32:35;30.23;;;25.10;;
9294;SDS011;4686;44.496;11.324;2023-02-17T01:35:02;30.07;;;24.53;;
9294;SDS011;4686;44.496;11.324;2023-02-17T01:37:30;31.43;;;25.17;;
9294;SDS011;4686;44.496;11.324;2023-02-17T01:39:58;28.40;;;24.23;;
9294;SDS011;4686;44.496;11.324;2023-02-17T01:42:26;29.83;;;25.17;;
9294;SDS011;4686;44.496;11.324;2023-02-17T01:47:40;30.50;;;25.10;;
9294;SDS011;4686;44.496;11.324;2023-02-17T01:50:07;27.03;;;23.80;;
9294;SDS011;4686;44.496;11.324;2023-02-17T01:52:35;28.80;;;23.70;;
9294;SDS011;4686;44.496;11.324;2023-02-17T01:55:04;31.03;;;25.37;;
9294;SDS011;4686;44.496;11.324;2023-02-17T01:57:33;33.07;;;24.73;;
9294;SDS011;4686;44.496;11.324;2023-02-17T02:00:01;27.73;;;24.00;;
9294;SDS011;4686;44.496;11.324;2023-02-17T02:02:29;31.07;;;23.63;;
9294;SDS011;4686;44.496;11.324;2023-02-17T02:04:57;29.30;;;24.70;;
9294;SDS011;4686;44.496;11.324;2023-02-17T02:07:27;28.20;;;23.57;;
9294;SDS011;4686;44.496;11.324;2023-02-17T02:09:55;29.40;;;24.47;;
9294;SDS011;4686;44.496;11.324;2023-02-17T02:12:23;27.10;;;24.20;;
9294;SDS011;4686;44.496;11.324;2023-02-17T02:14:50;30.90;;;23.43;;
9294;SDS011;4686;44.496;11.324;2023-02-17T02:17:21;31.47;;;24.13;;
9294;SDS011;4686;44.496;11.324;2023-02-17T02:22:41;31.23;;;24.77;;
9294;SDS011;4686;44.496;11.324;2023-02-17T02:25:16;30.90;;;24.97;;
9294;SDS011;4686;44.496;11.324;2023-02-17T02:27:50;30.13;;;23.20;;
9294;SDS011;4686;44.496;11.324;2023-02-17T02:33:04;27.00;;;22.77;;
9294;SDS011;4686;44.496;11.324;2023-02-17T02:35:35;27.43;;;24.30;;
9294;SDS011;4686;44.496;11.324;2023-02-17T02:38:05;28.13;;;22.40;;
9294;SDS011;4686;44.496;11.324;2023-02-17T02:40:38;26.87;;;22.13;;
9294;SDS011;4686;44.496;11.324;2023-02-17T02:43:06;29.10;;;23.33;;
9294;SDS011;4686;44.496;11.324;2023-02-17T02:45:34;27.20;;;23.77;;
9294;SDS011;4686;44.496;11.324;2023-02-17T02:48:01;27.13;;;22.70;;
9294;SDS011;4686;44.496;11.324;2023-02-17T02:50:33;24.70;;;22.10;;
9294;SDS011;4686;44.496;11.324;2023-02-17T02:55:49;27.20;;;23.33;;
9294;SDS011;4686;44.496;11.324;2023-02-17T02:58:18;28.57;;;23.10;;
9294;SDS011;4686;44.496;11.324;2023-02-17T03:00:49;33.03;;;23.83;;
9294;SDS011;4686;44.496;11.324;2023-02-17T03:03:19;28.90;;;23.77;;
9294;SDS011;4686;44.496;11.324;2023-02-17T03:05:51;30.43;;;25.80;;
9294;SDS011;4686;44.496;11.324;2023-02-17T03:08:22;27.90;;;22.20;;
9294;SDS011;4686;44.496;11.324;2023-02-17T03:10:52;27.03;;;21.30;;
9294;SDS011;4686;44.496;11.324;2023-02-17T03:13:20;26.03;;;23.10;;
9294;SDS011;4686;44.496;11.324;2023-02-17T03:15:47;29.73;;;23.63;;
9294;SDS011;4686;44.496;11.324;2023-02-17T03:18:15;25.53;;;22.10;;
9294;SDS011;4686;44.496;11.324;2023-02-17T03:20:42;26.10;;;23.23;;
9294;SDS011;4686;44.496;11.324;2023-02-17T03:23:12;30.93;;;24.37;;
9294;SDS011;4686;44.496;11.324;2023-02-17T03:25:39;27.03;;;23.57;;
9294;SDS011;4686;44.496;11.324;2023-02-17T03:28:07;25.33;;;21.87;;
9294;SDS011;4686;44.496;11.324;2023-02-17T03:30:34;25.70;;;22.97;;
9294;SDS011;4686;44.496;11.324;2023-02-17T03:33:02;29.37;;;23.70;;
9294;SDS011;4686;44.496;11.324;2023-02-17T03:35:29;24.33;;;21.57;;
9294;SDS011;4686;44.496;11.324;2023-02-17T03:37:56;23.80;;;21.30;;
9294;SDS011;4686;44.496;11.324;2023-02-17T03:40:24;24.77;;;21.13;;
9294;SDS011;4686;44.496;11.324;2023-02-17T03:42:52;26.20;;;21.73;;
9294;SDS011;4686;44.496;11.324;2023-02-17T03:45:19;26.20;;;21.67;;
9294;SDS011;4686;44.496;11.324;2023-02-17T03:47:46;27.23;;;22.07;;
9294;SDS011;4686;44.496;11.324;2023-02-17T03:50:13;28.73;;;21.47;;
9294;SDS011;4686;44.496;11.324;2023-02-17T03:52:40;26.80;;;22.30;;
9294;SDS011;4686;44.496;11.324;2023-02-17T03:55:07;25.63;;;22.13;;
9294;SDS011;4686;44.496;11.324;2023-02-17T03:57:36;26.70;;;22.23;;
9294;SDS011;4686;44.496;11.324;2023-02-17T04:00:03;24.10;;;21.23;;
9294;SDS011;4686;44.496;11.324;2023-02-17T04:02:31;25.90;;;21.33;;
9294;SDS011;4686;44.496;11.324;2023-02-17T04:04:58;25.10;;;22.40;;
9294;SDS011;4686;44.496;11.324;2023-02-17T04:07:25;28.60;;;22.40;;
9294;SDS011;4686;44.496;11.324;2023-02-17T04:09:52;27.60;;;22.60;;
9294;SDS011;4686;44.496;11.324;2023-02-17T04:12:19;25.63;;;22.40;;
9294;SDS011;4686;44.496;11.324;2023-02-17T04:14:48;23.33;;;20.70;;
9294;SDS011;4686;44.496;11.324;2023-02-17T04:17:15;25.97;;;21.10;;
9294;SDS011;4686;44.496;11.324;2023-02-17T04:19:42;26.23;;;21.60;;
9294;SDS011;4686;44.496;11.324;2023-02-17T04:22:09;24.47;;;21.03;;
9294;SDS011;4686;44.496;11.324;2023-02-17T04:24:37;26.43;;;21.77;;
9294;SDS011;4686;44.496;11.324;2023-02-17T04:27:04;23.40;;;19.80;;
9294;SDS011;4686;44.496;11.324;2023-02-17T04:29:31;24.97;;;21.13;;
9294;SDS011;4686;44.496;11.324;2023-02-17T04:32:00;23.70;;;20.47;;
9294;SDS011;4686;44.496;11.324;2023-02-17T04:34:27;22.50;;;19.30;;
9294;SDS011;4686;44.496;11.324;2023-02-17T04:36:55;23.87;;;20.40;;
9294;SDS011;4686;44.496;11.324;2023-02-17T04:39:22;24.77;;;21.63;;
9294;SDS011;4686;44.496;11.324;2023-02-17T04:41:49;24.77;;;21.40;;
9294;SDS011;4686;44.496;11.324;2023-02-17T04:44:16;26.63;;;22.37;;
9294;SDS011;4686;44.496;11.324;2023-02-17T04:46:43;23.20;;;20.70;;
9294;SDS011;4686;44.496;11.324;2023-02-17T04:49:12;22.30;;;19.83;;
9294;SDS011;4686;44.496;11.324;2023-02-17T04:51:39;25.30;;;21.13;;
9294;SDS011;4686;44.496;11.324;2023-02-17T04:54:06;23.80;;;21.40;;
9294;SDS011;4686;44.496;11.324;2023-02-17T04:56:33;23.77;;;21.23;;
9294;SDS011;4686;44.496;11.324;2023-02-17T04:59:01;25.93;;;22.20;;
9294;SDS011;4686;44.496;11.324;2023-02-17T05:01:28;24.33;;;21.33;;
9294;SDS011;4686;44.496;11.324;2023-02-17T05:03:55;24.57;;;21.17;;
9294;SDS011;4686;44.496;11.324;2023-02-17T05:06:23;23.47;;;20.20;;
9294;SDS011;4686;44.496;11.324;2023-02-17T05:08:51;27.63;;;21.97;;
9294;SDS011;4686;44.496;11.324;2023-02-17T05:11:18;24.67;;;21.50;;
9294;SDS011;4686;44.496;11.324;2023-02-17T05:13:45;23.00;;;19.80;;
9294;SDS011;4686;44.496;11.324;2023-02-17T05:16:13;22.50;;;19.90;;
9294;SDS011;4686;44.496;11.324;2023-02-17T05:18:40;23.13;;;19.70;;
9294;SDS011;4686;44.496;11.324;2023-02-17T05:21:07;27.30;;;21.47;;
9294;SDS011;4686;44.496;11.324;2023-02-17T05:23:35;25.40;;;20.67;;
9294;SDS011;4686;44.496;11.324;2023-02-17T05:26:05;21.43;;;18.93;;
9294;SDS011;4686;44.496;11.324;2023-02-17T05:28:32;22.03;;;19.70;;
9294;SDS011;4686;44.496;11.324;2023-02-17T05:30:59;23.07;;;19.43;;
9294;SDS011;4686;44.496;11.324;2023-02-17T05:33:27;21.37;;;19.10;;
9294;SDS011;4686;44.496;11.324;2023-02-17T05:35:54;21.23;;;18.93;;
9294;SDS011;4686;44.496;11.324;2023-02-17T05:38:21;22.27;;;19.17;;
9294;SDS011;4686;44.496;11.324;2023-02-17T05:40:50;20.90;;;18.60;;
9294;SDS011;4686;44.496;11.324;2023-02-17T05:43:17;26.37;;;20.80;;
9294;SDS011;4686;44.496;11.324;2023-02-17T05:45:46;21.33;;;19.03;;
9294;SDS011;4686;44.496;11.324;2023-02-17T05:48:14;22.47;;;19.20;;
9294;SDS011;4686;44.496;11.324;2023-02-17T05:50:41;25.27;;;20.20;;
9294;SDS011;4686;44.496;11.324;2023-02-17T05:53:08;22.77;;;19.53;;
9294;SDS011;4686;44.496;11.324;2023-02-17T05:55:35;20.30;;;18.20;;
9294;SDS011;4686;44.496;11.324;2023-02-17T05:58:04;21.77;;;19.13;;
9294;SDS011;4686;44.496;11.324;2023-02-17T06:00:32;21.30;;;17.97;;
9294;SDS011;4686;44.496;11.324;2023-02-17T06:02:59;21.13;;;18.83;;
9294;SDS011;4686;44.496;11.324;2023-02-17T06:05:26;21.20;;;18.77;;
9294;SDS011;4686;44.496;11.324;2023-02-17T06:07:55;18.10;;;16.20;;
9294;SDS011;4686;44.496;11.324;2023-02-17T06:10:23;23.07;;;18.87;;
9294;SDS011;4686;44.496;11.324;2023-02-17T06:12:50;20.13;;;17.70;;
9294;SDS011;4686;44.496;11.324;2023-02-17T06:15:18;19.73;;;17.63;;
9294;SDS011;4686;44.496;11.324;2023-02-17T06:17:54;19.73;;;15.40;;
9294;SDS011;4686;44.496;11.324;2023-02-17T06:20:21;20.60;;;17.83;;
9294;SDS011;4686;44.496;11.324;2023-02-17T06:22:49;22.13;;;16.90;;
9294;SDS011;4686;44.496;11.324;2023-02-17T06:25:16;21.13;;;17.27;;
9294;SDS011;4686;44.496;11.324;2023-02-17T06:27:43;23.93;;;19.60;;
9294;SDS011;4686;44.496;11.324;2023-02-17T06:30:11;20.70;;;18.23;;
9294;SDS011;4686;44.496;11.324;2023-02-17T06:32:40;19.60;;;17.33;;
9294;SDS011;4686;44.496;11.324;2023-02-17T06:35:07;28.03;;;18.10;;
9294;SDS011;4686;44.496;11.324;2023-02-17T06:37:34;22.43;;;18.13;;
9294;SDS011;4686;44.496;11.324;2023-02-17T06:40:02;22.20;;;17.93;;
9294;SDS011;4686;44.496;11.324;2023-02-17T06:42:29;19.80;;;17.47;;
9294;SDS011;4686;44.496;11.324;2023-02-17T06:44:57;21.70;;;18.37;;
9294;SDS011;4686;44.496;11.324;2023-02-17T06:47:24;20.83;;;18.40;;
9294;SDS011;4686;44.496;11.324;2023-02-17T06:49:53;19.60;;;17.13;;
9294;SDS011;4686;44.496;11.324;2023-02-17T06:52:20;21.53;;;18.53;;
9294;SDS011;4686;44.496;11.324;2023-02-17T06:54:48;20.60;;;18.00;;
9294;SDS011;4686;44.496;11.324;2023-02-17T06:57:15;19.23;;;17.20;;
9294;SDS011;4686;44.496;11.324;2023-02-17T06:59:42;22.63;;;17.90;;
9294;SDS011;4686;44.496;11.324;2023-02-17T07:02:09;22.87;;;19.93;;
9294;SDS011;4686;44.496;11.324;2023-02-17T07:04:37;18.97;;;17.03;;
9294;SDS011;4686;44.496;11.324;2023-02-17T07:07:08;25.77;;;19.00;;
9294;SDS011;4686;44.496;11.324;2023-02-17T07:09:36;20.63;;;16.80;;
9294;SDS011;4686;44.496;11.324;2023-02-17T07:12:03;21.03;;;17.87;;
9294;SDS011;4686;44.496;11.324;2023-02-17T07:14:31;17.60;;;15.70;;
9294;SDS011;4686;44.496;11.324;2023-02-17T07:16:58;18.40;;;16.40;;
9294;SDS011;4686;44.496;11.324;2023-02-17T07:19:25;19.70;;;17.57;;
9294;SDS011;4686;44.496;11.324;2023-02-17T07:21:53;19.07;;;17.00;;
9294;SDS011;4686;44.496;11.324;2023-02-17T07:24:22;19.03;;;16.07;;
9294;SDS011;4686;44.496;11.324;2023-02-17T07:26:49;19.23;;;16.73;;
9294;SDS011;4686;44.496;11.324;2023-02-17T07:29:17;20.40;;;16.37;;
9294;SDS011;4686;44.496;11.324;2023-02-17T07:31:45;22.60;;;16.87;;
9294;SDS011;4686;44.496;11.324;2023-02-17T07:34:12;18.83;;;16.60;;
9294;SDS011;4686;44.496;11.324;2023-02-17T07:36:39;20.77;;;17.50;;
9294;SDS011;4686;44.496;11.324;2023-02-17T07:39:06;20.23;;;16.63;;
9294;SDS011;4686;44.496;11.324;2023-02-17T07:41:35;24.60;;;19.47;;
9294;SDS011;4686;44.496;11.324;2023-02-17T07:44:02;28.77;;;21.27;;
9294;SDS011;4686;44.496;11.324;2023-02-17T07:46:29;41.90;;;31.67;;
9294;SDS011;4686;44.496;11.324;2023-02-17T07:48:57;20.73;;;17.83;;
9294;SDS011;4686;44.496;11.324;2023-02-17T07:51:24;27.23;;;20.60;;
9294;SDS011;4686;44.496;11.324;2023-02-17T07:53:51;23.50;;;16.87;;
9294;SDS011;4686;44.496;11.324;2023-02-17T07:56:19;17.83;;;15.87;;
9294;SDS011;4686;44.496;11.324;2023-02-17T07:58:48;17.50;;;15.70;;
9294;SDS011;4686;44.496;11.324;2023-02-17T08:01:16;17.23;;;15.47;;
9294;SDS011;4686;44.496;11.324;2023-02-17T08:03:44;17.50;;;15.70;;
9294;SDS011;4686;44.496;11.324;2023-02-17T08:06:13;16.53;;;14.87;;
9294;SDS011;4686;44.496;11.324;2023-02-17T08:08:40;16.37;;;14.67;;
9294;SDS011;4686;44.496;11.324;2023-02-17T08:11:25;20.07;;;15.93;;
9294;SDS011;4686;44.496;11.324;2023-02-17T08:14:12;19.03;;;16.20;;
9294;SDS011;4686;44.496;11.324;2023-02-17T08:16:42;18.10;;;14.97;;
9294;SDS011;4686;44.496;11.324;2023-02-17T08:19:10;16.70;;;14.70;;
9294;SDS011;4686;44.496;11.324;2023-02-17T08:21:37;19.17;;;15.30;;
9294;SDS011;4686;44.496;11.324;2023-02-17T08:24:05;18.33;;;15.83;;
9294;SDS011;4686;44.496;11.324;2023-02-17T08:26:34;17.40;;;14.50;;
9294;SDS011;4686;44.496;11.324;2023-02-17T08:29:02;17.17;;;14.80;;
9294;SDS011;4686;44.496;11.324;2023-02-17T08:31:33;15.73;;;14.23;;
9294;SDS011;4686;44.496;11.324;2023-02-17T08:34:01;23.47;;;15.27;;
9294;SDS011;4686;44.496;11.324;2023-02-17T08:36:29;16.60;;;15.00;;
9294;SDS011;4686;44.496;11.324;2023-02-17T08:38:58;15.80;;;14.20;;
9294;SDS011;4686;44.496;11.324;2023-02-17T08:41:28;16.20;;;14.47;;
9294;SDS011;4686;44.496;11.324;2023-02-17T08:43:56;17.07;;;14.47;;
9294;SDS011;4686;44.496;11.324;2023-02-17T08:46:23;16.70;;;13.87;;
9294;SDS011;4686;44.496;11.324;2023-02-17T08:48:52;16.83;;;14.60;;
9294;SDS011;4686;44.496;11.324;2023-02-17T08:51:20;16.00;;;14.40;;
9294;SDS011;4686;44.496;11.324;2023-02-17T08:53:50;14.63;;;13.23;;
9294;SDS011;4686;44.496;11.324;2023-02-17T08:56:18;15.07;;;12.90;;
9294;SDS011;4686;44.496;11.324;2023-02-17T08:58:45;15.30;;;13.77;;
9294;SDS011;4686;44.496;11.324;2023-02-17T09:01:13;15.47;;;13.87;;
9294;SDS011;4686;44.496;11.324;2023-02-17T09:03:42;15.40;;;12.60;;
9294;SDS011;4686;44.496;11.324;2023-02-17T09:06:11;17.73;;;15.47;;
9294;SDS011;4686;44.496;11.324;2023-02-17T09:08:40;18.70;;;13.87;;
9294;SDS011;4686;44.496;11.324;2023-02-17T09:11:07;16.83;;;14.20;;
9294;SDS011;4686;44.496;11.324;2023-02-17T09:13:35;17.47;;;13.73;;
9294;SDS011;4686;44.496;11.324;2023-02-17T09:16:02;15.80;;;13.83;;
9294;SDS011;4686;44.496;11.324;2023-02-17T09:18:29;18.93;;;14.60;;
9294;SDS011;4686;44.496;11.324;2023-02-17T09:20:57;15.30;;;13.80;;
9294;SDS011;4686;44.496;11.324;2023-02-17T09:23:28;16.67;;;14.10;;
9294;SDS011;4686;44.496;11.324;2023-02-17T09:25:59;18.63;;;15.50;;
9294;SDS011;4686;44.496;11.324;2023-02-17T09:28:28;17.47;;;14.80;;
9294;SDS011;4686;44.496;11.324;2023-02-17T09:30:56;17.27;;;14.70;;
9294;SDS011;4686;44.496;11.324;2023-02-17T09:33:23;17.20;;;15.17;;
9294;SDS011;4686;44.496;11.324;2023-02-17T09:35:50;19.10;;;16.10;;
9294;SDS011;4686;44.496;11.324;2023-02-17T09:38:18;18.53;;;16.53;;
9294;SDS011;4686;44.496;11.324;2023-02-17T09:40:47;15.87;;;14.23;;
9294;SDS011;4686;44.496;11.324;2023-02-17T09:43:15;17.30;;;15.50;;
9294;SDS011;4686;44.496;11.324;2023-02-17T09:45:43;18.60;;;16.43;;
9294;SDS011;4686;44.496;11.324;2023-02-17T09:48:13;18.60;;;16.63;;
9294;SDS011;4686;44.496;11.324;2023-02-17T09:50:44;23.00;;;18.07;;
9294;SDS011;4686;44.496;11.324;2023-02-17T09:53:15;20.77;;;18.10;;
9294;SDS011;4686;44.496;11.324;2023-02-17T09:55:45;22.43;;;18.57;;
9294;SDS011;4686;44.496;11.324;2023-02-17T09:58:16;22.20;;;19.70;;
9294;SDS011;4686;44.496;11.324;2023-02-17T10:00:46;22.80;;;18.93;;
9294;SDS011;4686;44.496;11.324;2023-02-17T10:03:14;23.03;;;19.20;;
9294;SDS011;4686;44.496;11.324;2023-02-17T10:05:44;23.87;;;19.00;;
9294;SDS011;4686;44.496;11.324;2023-02-17T10:08:13;20.33;;;18.17;;
9294;SDS011;4686;44.496;11.324;2023-02-17T10:10:43;20.40;;;17.47;;
9294;SDS011;4686;44.496;11.324;2023-02-17T10:13:12;22.33;;;17.73;;
9294;SDS011;4686;44.496;11.324;2023-02-17T10:15:43;23.30;;;19.03;;
9294;SDS011;4686;44.496;11.324;2023-02-17T10:18:15;21.30;;;18.00;;
9294;SDS011;4686;44.496;11.324;2023-02-17T10:20:43;20.50;;;18.40;;
9294;SDS011;4686;44.496;11.324;2023-02-17T10:23:12;18.77;;;16.77;;
9294;SDS011;4686;44.496;11.324;2023-02-17T10:25:55;25.63;;;19.53;;
9294;SDS011;4686;44.496;11.324;2023-02-17T10:28:31;23.77;;;18.90;;
9294;SDS011;4686;44.496;11.324;2023-02-17T10:31:08;24.13;;;20.00;;
9294;SDS011;4686;44.496;11.324;2023-02-17T10:33:38;21.87;;;18.40;;
9294;SDS011;4686;44.496;11.324;2023-02-17T10:36:11;23.23;;;19.90;;
9294;SDS011;4686;44.496;11.324;2023-02-17T10:38:47;26.40;;;20.33;;
9294;SDS011;4686;44.496;11.324;2023-02-17T10:41:16;23.63;;;18.40;;
9294;SDS011;4686;44.496;11.324;2023-02-17T10:43:45;22.83;;;19.33;;
9294;SDS011;4686;44.496;11.324;2023-02-17T10:46:16;27.70;;;22.63;;
9294;SDS011;4686;44.496;11.324;2023-02-17T10:48:44;23.30;;;19.43;;
9294;SDS011;4686;44.496;11.324;2023-02-17T10:51:14;22.03;;;18.77;;
9294;SDS011;4686;44.496;11.324;2023-02-17T10:53:43;21.77;;;18.93;;
9294;SDS011;4686;44.496;11.324;2023-02-17T10:56:12;23.80;;;20.27;;
9294;SDS011;4686;44.496;11.324;2023-02-17T10:58:42;22.27;;;19.80;;
9294;SDS011;4686;44.496;11.324;2023-02-17T11:01:13;31.53;;;19.57;;
9294;SDS011;4686;44.496;11.324;2023-02-17T11:03:42;23.27;;;20.10;;
9294;SDS011;4686;44.496;11.324;2023-02-17T11:06:14;22.37;;;19.23;;
9294;SDS011;4686;44.496;11.324;2023-02-17T11:08:44;26.60;;;20.27;;
9294;SDS011;4686;44.496;11.324;2023-02-17T11:11:15;26.00;;;21.07;;
9294;SDS011;4686;44.496;11.324;2023-02-17T11:13:44;22.37;;;19.97;;
9294;SDS011;4686;44.496;11.324;2023-02-17T11:16:20;26.67;;;20.90;;
9294;SDS011;4686;44.496;11.324;2023-02-17T11:18:49;27.13;;;21.03;;
9294;SDS011;4686;44.496;11.324;2023-02-17T11:21:16;27.87;;;21.30;;
9294;SDS011;4686;44.496;11.324;2023-02-17T11:23:47;27.37;;;22.30;;
9294;SDS011;4686;44.496;11.324;2023-02-17T11:26:16;28.00;;;22.07;;
9294;SDS011;4686;44.496;11.324;2023-02-17T11:28:43;26.67;;;21.30;;
9294;SDS011;4686;44.496;11.324;2023-02-17T11:31:20;26.60;;;21.97;;
9294;SDS011;4686;44.496;11.324;2023-02-17T11:33:49;23.80;;;20.70;;
9294;SDS011;4686;44.496;11.324;2023-02-17T11:36:21;24.60;;;20.08;;
9294;SDS011;4686;44.496;11.324;2023-02-17T11:38:49;23.90;;;20.37;;
9294;SDS011;4686;44.496;11.324;2023-02-17T11:41:16;24.43;;;20.07;;
9294;SDS011;4686;44.496;11.324;2023-02-17T11:43:50;25.33;;;20.30;;
9294;SDS011;4686;44.496;11.324;2023-02-17T11:46:23;24.23;;;20.17;;
9294;SDS011;4686;44.496;11.324;2023-02-17T11:48:56;22.43;;;19.60;;
9294;SDS011;4686;44.496;11.324;2023-02-17T11:51:27;25.57;;;19.77;;
9294;SDS011;4686;44.496;11.324;2023-02-17T11:54:01;26.03;;;19.80;;
9294;SDS011;4686;44.496;11.324;2023-02-17T11:56:32;23.67;;;19.93;;
9294;SDS011;4686;44.496;11.324;2023-02-17T11:59:04;23.20;;;19.90;;
9294;SDS011;4686;44.496;11.324;2023-02-17T12:01:42;23.83;;;19.20;;
9294;SDS011;4686;44.496;11.324;2023-02-17T12:04:22;25.87;;;19.70;;
9294;SDS011;4686;44.496;11.324;2023-02-17T12:06:52;26.00;;;17.90;;
9294;SDS011;4686;44.496;11.324;2023-02-17T12:09:22;21.40;;;18.87;;
9294;SDS011;4686;44.496;11.324;2023-02-17T12:11:54;19.73;;;15.73;;
9294;SDS011;4686;44.496;11.324;2023-02-17T12:14:33;18.67;;;15.23;;
9294;SDS011;4686;44.496;11.324;2023-02-17T12:17:09;17.60;;;15.70;;
9294;SDS011;4686;44.496;11.324;2023-02-17T12:19:42;19.80;;;15.43;;
9294;SDS011;4686;44.496;11.324;2023-02-17T12:22:13;17.43;;;14.23;;
9294;SDS011;4686;44.496;11.324;2023-02-17T12:24:45;20.00;;;15.80;;
9294;SDS011;4686;44.496;11.324;2023-02-17T12:27:21;18.97;;;16.10;;
9294;SDS011;4686;44.496;11.324;2023-02-17T12:29:57;20.27;;;16.00;;
9294;SDS011;4686;44.496;11.324;2023-02-17T12:32:31;22.90;;;19.20;;
9294;SDS011;4686;44.496;11.324;2023-02-17T12:35:02;20.20;;;17.10;;
9294;SDS011;4686;44.496;11.324;2023-02-17T12:37:37;17.63;;;15.70;;
9294;SDS011;4686;44.496;11.324;2023-02-17T12:40:13;21.07;;;17.07;;
9294;SDS011;4686;44.496;11.324;2023-02-17T12:42:42;30.30;;;23.97;;
9294;SDS011;4686;44.496;11.324;2023-02-17T12:45:15;31.67;;;23.60;;
9294;SDS011;4686;44.496;11.324;2023-02-17T12:47:45;20.90;;;18.63;;
9294;SDS011;4686;44.496;11.324;2023-02-17T12:50:17;23.67;;;19.77;;
9294;SDS011;4686;44.496;11.324;2023-02-17T12:52:45;18.60;;;16.47;;
9294;SDS011;4686;44.496;11.324;2023-02-17T12:55:17;18.87;;;16.90;;
9294;SDS011;4686;44.496;11.324;2023-02-17T12:57:46;23.03;;;18.43;;
9294;SDS011;4686;44.496;11.324;2023-02-17T13:00:21;28.60;;;20.60;;
9294;SDS011;4686;44.496;11.324;2023-02-17T13:02:49;22.53;;;19.87;;
9294;SDS011;4686;44.496;11.324;2023-02-17T13:05:21;26.67;;;19.80;;
9294;SDS011;4686;44.496;11.324;2023-02-17T13:07:50;21.30;;;17.27;;
9294;SDS011;4686;44.496;11.324;2023-02-17T13:10:30;19.43;;;17.33;;
9294;SDS011;4686;44.496;11.324;2023-02-17T13:12:59;25.07;;;20.83;;
9294;SDS011;4686;44.496;11.324;2023-02-17T13:15:28;24.07;;;18.67;;
9294;SDS011;4686;44.496;11.324;2023-02-17T13:17:57;24.93;;;19.40;;
9294;SDS011;4686;44.496;11.324;2023-02-17T13:20:37;19.73;;;17.10;;
9294;SDS011;4686;44.496;11.324;2023-02-17T13:23:07;19.23;;;17.13;;
9294;SDS011;4686;44.496;11.324;2023-02-17T13:25:35;22.53;;;18.83;;
9294;SDS011;4686;44.496;11.324;2023-02-17T13:28:14;21.20;;;18.63;;
9294;SDS011;4686;44.496;11.324;2023-02-17T13:30:42;22.30;;;17.57;;
9294;SDS011;4686;44.496;11.324;2023-02-17T13:33:24;20.10;;;17.60;;
9294;SDS011;4686;44.496;11.324;2023-02-17T13:35:53;20.87;;;17.43;;
9294;SDS011;4686;44.496;11.324;2023-02-17T13:38:27;24.57;;;16.70;;
9294;SDS011;4686;44.496;11.324;2023-02-17T13:40:56;26.73;;;18.97;;
9294;SDS011;4686;44.496;11.324;2023-02-17T13:43:25;21.90;;;16.97;;
9294;SDS011;4686;44.496;11.324;2023-02-17T13:45:56;21.70;;;16.43;;
9294;SDS011;4686;44.496;11.324;2023-02-17T13:48:25;19.30;;;17.20;;
9294;SDS011;4686;44.496;11.324;2023-02-17T13:50:54;23.77;;;18.30;;
9294;SDS011;4686;44.496;11.324;2023-02-17T13:53:27;25.50;;;19.30;;
9294;SDS011;4686;44.496;11.324;2023-02-17T13:55:55;19.13;;;17.13;;
9294;SDS011;4686;44.496;11.324;2023-02-17T13:58:26;21.33;;;18.00;;
9294;SDS011;4686;44.496;11.324;2023-02-17T14:00:54;22.97;;;18.20;;
9294;SDS011;4686;44.496;11.324;2023-02-17T14:03:22;22.07;;;18.80;;
9294;SDS011;4686;44.496;11.324;2023-02-17T14:05:50;20.00;;;17.70;;
9294;SDS011;4686;44.496;11.324;2023-02-17T14:08:21;22.80;;;18.00;;
9294;SDS011;4686;44.496;11.324;2023-02-17T14:10:50;22.20;;;18.50;;
9294;SDS011;4686;44.496;11.324;2023-02-17T14:13:17;23.40;;;18.60;;
9294;SDS011;4686;44.496;11.324;2023-02-17T14:15:48;27.30;;;17.57;;
9294;SDS011;4686;44.496;11.324;2023-02-17T14:18:23;20.33;;;17.10;;
9294;SDS011;4686;44.496;11.324;2023-02-17T14:20:58;23.97;;;18.97;;
9294;SDS011;4686;44.496;11.324;2023-02-17T14:23:27;28.57;;;18.83;;
9294;SDS011;4686;44.496;11.324;2023-02-17T14:26:08;27.03;;;17.47;;
9294;SDS011;4686;44.496;11.324;2023-02-17T14:28:35;20.73;;;17.20;;
9294;SDS011;4686;44.496;11.324;2023-02-17T14:31:11;22.20;;;17.80;;
9294;SDS011;4686;44.496;11.324;2023-02-17T14:33:50;22.07;;;19.27;;
9294;SDS011;4686;44.496;11.324;2023-02-17T14:36:24;18.60;;;16.70;;
9294;SDS011;4686;44.496;11.324;2023-02-17T14:38:55;21.07;;;16.90;;
9294;SDS011;4686;44.496;11.324;2023-02-17T14:41:23;22.43;;;17.70;;
9294;SDS011;4686;44.496;11.324;2023-02-17T14:43:52;21.23;;;17.60;;
9294;SDS011;4686;44.496;11.324;2023-02-17T14:46:21;22.20;;;18.30;;
9294;SDS011;4686;44.496;11.324;2023-02-17T14:48:48;21.83;;;17.60;;
9294;SDS011;4686;44.496;11.324;2023-02-17T14:51:16;23.80;;;18.23;;
9294;SDS011;4686;44.496;11.324;2023-02-17T14:53:44;22.30;;;17.83;;
9294;SDS011;4686;44.496;11.324;2023-02-17T14:56:15;20.40;;;17.93;;